Share

Holyoke, CO

8:32 AM MDT on April 24, 2014 (GMT -0600)
Holyoke Municipal (KHEQ) Elev 3730 ft | 40.57 °N, 102.28 °W | Change Station

Current weather conditions updated 17 minutes ago

Clear
Clear
52 °F
Feels Like 52 °F
N
13
Wind Variable Wind from NW
Gusts 22 mph
Sunrise 5:57 AM
Sunset 7:37 PM
Moon Waning Crescent

Today is forecast to be Cooler than yesterday.

Pressure 29.95 in
Visibility 10.0 miles
Clouds Clear
Dew Point 25 °F
Humidity 35%
Rainfall 0.00 in
Snow Depth Not available.
UV 2 out of 16
Pollen 10.00 out of 12
Air Quality Not available.
Flu Activity Sporadic
METAR KHEQ 241415Z AUTO 31011G19KT 10SM CLR 11/M04 A2995 RMK AO2

More Conditions Fewer Conditions

Pressure 29.95 in
Visibility 10.0 miles
Clouds Clear
Dew Point 25 °F
Humidity 35%
Rainfall 0.00 in
Snow Depth Not available.
UV 2 out of 16
Pollen 10.00 out of 12
Air Quality Not available.
Flu Activity Sporadic
METAR KHEQ 241415Z AUTO 31011G19KT 10SM CLR 11/M04 A2995 RMK AO2

More Conditions Fewer Conditions

10-Day Weather Forecast

Almanac

Astronomy

Apr. 24, 2014 Rise Set
Actual Time 5:57 AM MDT 7:37 PM MDT
Civil Twilight 5:28 AM MDT 8:06 PM MDT
Nautical Twilight 4:53 AM MDT 8:42 PM MDT
Astronomical Twilight 4:15 AM MDT 9:19 PM MDT
Moon 3:11 AM MDT 2:54 PM MDT
Length of Visible Light 14h 38m
Length of Day
13h 40m
Tomorrow will be 2m 26s longer.
Waning Crescent, 25% of the Moon is Illuminated
Today
Waning Crescent
Apr 29
New
May 6
First Quarter
May 14
Full
May 21
Last Quarter

Today's Extremes

State Highs State Lows

Community

  • Clouds mov'n in
    Clouds mov'n in
  • Stacked
    Stacked
  • clouds approaching Red Sox Nation
    clouds approaching Red Sox Nation
  • Balance
    Balance
  • Citysky
    Citysky

WunderPhotos

Upload Photos

1,704,630 photos uploaded!

WunderBlogs® & News

Nearby

Snow Depth

Station Depth Elevation
Copeland Lake 0 in 8600 ft
Niwot 43 in 9910 ft
Wild Basin 49 in 9560 ft
University Camp 71 in 10300 ft
Bear Lake 52 in 9500 ft

Coastal Water Temperatures

Place Temperature
No Stations Reporting

Earthquake Activity

City Distance Mag. Time & Date
No recent earthquake activity has been reported nearby.
Minimum magnitude displayed is 2.5.

Nearby Weather Stations

Station Location Temp. Dew Point Humidity Wind Precip. Elev Updated Type
Clarkville, CO, Haxtun, CO 51.6 °F 24 °F 34% North  at  0.0 mph 0.00 in / hr 3980 ft 8:32 AM MDT Rapid Fire

Show More Stations Show Fewer Stations

What do you think?

We're not finished. Please let us know what you like, what you don't like, and what you are still missing.